Time;durP1;ratioP1;P1;durP2;ratioP2;P2;SDS_P1;SDS_P2;PMS_P1;PMS_P2;Temp;Humidity;BMP_temperature;BMP_pressure;BME280_temperature;BME280_humidity;BME280_pressure;Samples;Min_cycle;Max_cycle;Signal;HPM_P1;HPM_P2
2023/04/28 00:04:02;;;;;;;61.90;26.30;;;;;;;1.59;83.69;101001.95;218339;1288;138894;-85
2023/04/28 00:09:03;;;;;;;54.60;23.30;;;;;;;1.55;84.11;101000.79;217851;1291;139173;-85
2023/04/28 00:14:04;;;;;;;50.80;20.70;;;;;;;1.48;84.14;101003.75;218464;1289;96017;-86
2023/04/28 00:19:05;;;;;;;46.40;21.00;;;;;;;1.42;84.07;101006.66;217669;1289;139905;-85
2023/04/28 00:24:05;;;;;;;42.50;20.10;;;;;;;1.37;84.67;101002.53;218371;1291;138862;-85
2023/04/28 00:29:06;;;;;;;40.10;16.50;;;;;;;1.32;85.26;101008.70;217786;1288;139920;-85
2023/04/28 00:34:06;;;;;;;27.80;13.10;;;;;;;1.27;85.37;101010.91;218374;1289;138860;-85
2023/04/28 00:39:07;;;;;;;27.20;13.20;;;;;;;1.22;85.28;101007.98;217792;1288;139125;-85
2023/04/28 00:44:07;;;;;;;29.70;12.40;;;;;;;1.17;85.84;101009.77;218487;1289;96594;-85
2023/04/28 00:49:08;;;;;;;23.80;11.40;;;;;;;1.13;85.85;101011.84;217782;1289;139043;-85
2023/04/28 00:54:12;;;;;;;22.50;10.80;;;;;;;1.10;86.25;101011.63;218425;1288;138892;-85
2023/04/28 00:59:13;;;;;;;25.70;12.00;;;;;;;1.07;86.11;101009.73;217809;1288;139256;-85
2023/04/28 01:04:16;;;;;;;23.10;10.80;;;;;;;1.01;86.05;101002.14;218375;1288;139634;-85
2023/04/28 01:09:16;;;;;;;27.60;14.00;;;;;;;0.98;86.88;101001.67;217833;1289;139467;-85
2023/04/28 01:14:16;;;;;;;31.70;15.00;;;;;;;0.94;86.66;100996.11;218473;1289;96028;-83
2023/04/28 01:19:23;;;;;;;42.40;18.40;;;;;;;0.92;86.97;100999.02;217819;1288;139186;-85
2023/04/28 01:24:23;;;;;;;41.00;19.20;;;;;;;0.89;86.92;100996.67;218200;1288;138880;-85
2023/04/28 01:29:24;;;;;;;54.90;21.50;;;;;;;0.86;87.91;100996.14;217875;1288;141258;-85
2023/04/28 01:34:25;;;;;;;46.50;20.10;;;;;;;0.83;87.68;101004.98;218374;1288;139571;-86
2023/04/28 01:39:25;;;;;;;43.20;18.60;;;;;;;0.77;87.56;100996.84;217867;1289;139559;-85
2023/04/28 01:44:26;;;;;;;104.10;36.00;;;;;;;0.73;87.65;100994.97;218424;1289;95972;-86
2023/04/28 01:49:26;;;;;;;138.10;43.70;;;;;;;0.73;87.27;100996.75;217792;1288;139288;-85
2023/04/28 01:54:27;;;;;;;89.60;30.40;;;;;;;0.71;87.85;100992.69;218384;1288;139714;-86
2023/04/28 01:59:27;;;;;;;58.50;21.80;;;;;;;0.67;87.37;100994.65;217842;1291;139871;-85
2023/04/28 02:04:28;;;;;;;96.60;30.80;;;;;;;0.65;87.97;100988.90;218287;1290;140211;-86
2023/04/28 02:09:28;;;;;;;59.60;21.60;;;;;;;0.63;88.02;100985.95;217800;1289;139833;-85
2023/04/28 02:14:32;;;;;;;45.10;18.80;;;;;;;0.61;88.44;100989.39;218465;1289;96151;-85
2023/04/28 02:19:33;;;;;;;37.50;17.20;;;;;;;0.57;88.57;100984.90;217786;1289;138935;-85
2023/04/28 02:24:35;;;;;;;36.00;16.50;;;;;;;0.53;88.69;100984.98;218320;1289;139099;-86
2023/04/28 02:29:36;;;;;;;37.10;16.80;;;;;;;0.51;88.34;100982.42;217804;1289;139696;-85
2023/04/28 02:34:36;;;;;;;32.90;16.70;;;;;;;0.51;88.17;100986.81;218397;1294;139801;-86
2023/04/28 02:39:37;;;;;;;35.30;18.00;;;;;;;0.48;89.04;100988.90;217857;1293;139606;-86
2023/04/28 02:44:37;;;;;;;43.50;17.90;;;;;;;0.43;89.24;100987.49;218272;1291;105548;-86
2023/04/28 02:49:38;;;;;;;32.10;18.10;;;;;;;0.41;89.51;100984.98;217827;1292;139711;-86
2023/04/28 02:54:38;;;;;;;31.30;16.00;;;;;;;0.40;89.78;100985.70;218294;1292;139260;-86
2023/04/28 02:59:39;;;;;;;38.20;19.10;;;;;;;0.37;89.95;100984.02;217853;1288;138897;-86
2023/04/28 03:04:39;;;;;;;34.50;17.10;;;;;;;0.34;90.04;100987.25;218427;1288;142010;-86
2023/04/28 03:09:40;;;;;;;39.10;17.00;;;;;;;0.31;90.36;100987.31;217842;1289;139548;-85
2023/04/28 03:14:40;;;;;;;41.30;18.10;;;;;;;0.30;90.67;100988.04;218453;1289;96062;-86
2023/04/28 03:19:41;;;;;;;36.60;16.80;;;;;;;0.29;90.60;100987.82;217699;1289;138901;-86
2023/04/28 03:24:41;;;;;;;35.60;16.50;;;;;;;0.26;90.51;100984.73;218377;1289;139748;-85
2023/04/28 03:29:42;;;;;;;31.20;15.90;;;;;;;0.25;90.33;100983.40;217783;1289;139289;-86
2023/04/28 03:34:42;;;;;;;34.40;17.90;;;;;;;0.25;90.65;100983.55;218350;1293;139504;-85
2023/04/28 03:39:43;;;;;;;40.00;18.90;;;;;;;0.24;90.66;100983.19;217852;1289;139698;-85
2023/04/28 03:44:43;;;;;;;35.70;18.80;;;;;;;0.23;90.87;100984.99;218400;1288;96784;-85
2023/04/28 03:49:44;;;;;;;34.80;19.20;;;;;;;0.22;91.04;100984.61;217851;1289;139851;-85
2023/04/28 03:54:45;;;;;;;38.10;17.90;;;;;;;0.22;91.46;100984.20;218390;1289;138677;-85
2023/04/28 03:59:45;;;;;;;36.10;16.40;;;;;;;0.22;90.94;100984.81;217809;1289;139057;-85
2023/04/28 04:04:46;;;;;;;39.60;19.00;;;;;;;0.22;91.65;100986.70;218369;1288;139465;-85
2023/04/28 04:09:47;;;;;;;41.20;20.40;;;;;;;0.24;92.39;100981.73;217682;1291;139933;-85
2023/04/28 04:14:47;;;;;;;34.10;17.30;;;;;;;0.26;92.11;100983.60;218412;1289;95954;-85
2023/04/28 04:19:48;;;;;;;34.30;17.30;;;;;;;0.28;91.84;100980.87;217565;1289;349408;-85
2023/04/28 04:24:48;;;;;;;34.20;15.60;;;;;;;0.31;92.13;100983.02;218375;1288;140639;-85
2023/04/28 04:29:49;;;;;;;30.40;15.70;;;;;;;0.36;91.75;100985.23;217844;1289;138875;-85
2023/04/28 04:34:49;;;;;;;38.10;16.80;;;;;;;0.43;92.82;100985.80;218366;1288;139741;-84
2023/04/28 04:39:50;;;;;;;42.10;18.40;;;;;;;0.51;93.56;100982.14;217807;1288;139875;-84
2023/04/28 04:44:50;;;;;;;38.40;16.70;;;;;;;0.57;93.83;100983.18;218359;1288;95819;-85
2023/04/28 04:49:51;;;;;;;54.00;22.80;;;;;;;0.68;93.79;100982.89;217728;1289;139540;-84
2023/04/28 04:54:52;;;;;;;48.80;25.10;;;;;;;0.82;94.73;100982.29;218271;1289;139626;-84
2023/04/28 04:59:52;;;;;;;48.10;22.50;;;;;;;1.02;94.86;100980.72;217604;1288;139623;-85
2023/04/28 05:04:53;;;;;;;44.30;20.40;;;;;;;1.22;94.75;100981.67;218203;1288;139001;-85
2023/04/28 05:09:53;;;;;;;41.60;19.30;;;;;;;1.55;95.29;100979.58;217801;1287;140717;-85
2023/04/28 05:14:54;;;;;;;48.80;20.20;;;;;;;1.84;94.89;100980.02;218302;1291;139331;-86
2023/04/28 05:19:54;;;;;;;42.70;19.30;;;;;;;2.20;94.52;100976.52;217870;1288;139093;-84
2023/04/28 05:24:55;;;;;;;46.70;20.90;;;;;;;2.60;94.39;100979.80;218259;1288;138704;-85
2023/04/28 05:29:55;;;;;;;46.40;20.30;;;;;;;3.04;93.70;100984.05;217840;1288;139316;-82
2023/04/28 05:34:56;;;;;;;48.00;23.70;;;;;;;3.42;93.38;100983.15;218226;1289;138963;-81
2023/04/28 05:39:56;;;;;;;41.00;19.00;;;;;;;3.95;93.21;100981.71;217758;1289;139687;-81
2023/04/28 05:44:56;;;;;;;38.10;19.10;;;;;;;4.61;92.10;100984.09;218207;1289;139329;-81
2023/04/28 05:49:57;;;;;;;37.70;18.30;;;;;;;5.33;91.10;100978.80;217839;1288;140208;-81
2023/04/28 05:54:57;;;;;;;30.70;15.80;;;;;;;6.09;90.11;100970.59;218276;1289;138890;-81
2023/04/28 05:59:58;;;;;;;29.10;14.10;;;;;;;6.85;86.12;100970.71;217839;1288;139370;-81
2023/04/28 06:04:58;;;;;;;29.50;12.90;;;;;;;7.50;83.33;100971.33;218217;1288;139136;-81
2023/04/28 06:09:58;;;;;;;30.70;12.80;;;;;;;8.11;80.47;100966.63;217826;1289;139638;-82
2023/04/28 06:14:59;;;;;;;28.00;13.50;;;;;;;8.66;79.55;100967.15;218306;1289;139831;-82
2023/04/28 06:19:59;;;;;;;24.80;10.40;;;;;;;9.08;77.56;100967.89;217918;1291;139330;-82
2023/04/28 06:25:00;;;;;;;23.50;10.00;;;;;;;9.36;75.03;100963.39;218348;1289;139190;-82
2023/04/28 06:30:00;;;;;;;17.80;9.10;;;;;;;9.56;72.62;100966.25;217805;1288;142245;-82
2023/04/28 06:35:01;;;;;;;19.90;8.50;;;;;;;9.70;71.36;100958.08;218317;1289;139306;-81
2023/04/28 06:40:01;;;;;;;22.00;9.10;;;;;;;9.81;69.73;100953.32;217841;1288;140417;-80
2023/04/28 06:45:02;;;;;;;19.10;7.80;;;;;;;9.92;68.22;100947.89;218396;1289;139708;-82
2023/04/28 06:50:03;;;;;;;20.20;8.30;;;;;;;10.04;67.47;100944.10;217930;1288;138446;-82
2023/04/28 06:55:05;;;;;;;18.00;8.80;;;;;;;10.12;66.99;100943.41;218350;1289;140257;-82
2023/04/28 07:00:07;;;;;;;20.70;9.10;;;;;;;10.21;65.33;100940.30;217610;1288;140431;-81
2023/04/28 07:05:07;;;;;;;29.30;12.60;;;;;;;10.24;63.81;100934.48;218225;1289;139298;-80
2023/04/28 07:10:09;;;;;;;23.90;9.70;;;;;;;10.28;62.23;100934.40;217810;1288;140216;-80
2023/04/28 07:15:10;;;;;;;21.30;10.10;;;;;;;10.25;61.91;100931.02;218389;1291;138429;-82
2023/04/28 07:20:13;;;;;;;18.30;7.00;;;;;;;10.29;62.35;100924.73;217631;1289;138343;-81
2023/04/28 07:25:14;;;;;;;16.10;7.00;;;;;;;10.39;61.32;100920.86;218306;1288;138259;-81
2023/04/28 07:30:14;;;;;;;13.90;5.20;;;;;;;10.54;61.04;100917.15;217467;1289;138780;-81
2023/04/28 07:35:15;;;;;;;10.10;4.80;;;;;;;10.67;60.12;100906.27;218275;1289;138469;-81
2023/04/28 07:40:16;;;;;;;13.30;4.70;;;;;;;10.79;59.17;100898.80;217720;1289;140319;-81
2023/04/28 07:45:16;;;;;;;10.00;4.40;;;;;;;10.90;57.30;100895.36;218081;1289;139638;-80
2023/04/28 07:50:17;;;;;;;8.90;3.90;;;;;;;10.99;57.67;100892.70;217786;1290;139451;-82
2023/04/28 07:55:17;;;;;;;10.20;4.90;;;;;;;11.10;56.80;100889.18;218251;1288;137987;-80
2023/04/28 08:00:18;;;;;;;10.60;4.00;;;;;;;11.26;56.88;100881.48;217734;1290;139402;-82
2023/04/28 08:05:18;;;;;;;10.00;3.90;;;;;;;11.44;56.86;100872.77;218289;1288;138518;-81
2023/04/28 08:10:19;;;;;;;14.00;4.10;;;;;;;11.58;54.49;100873.63;217698;1288;138573;-84
2023/04/28 08:15:20;;;;;;;9.50;4.30;;;;;;;11.78;55.69;100865.41;218190;1289;138460;-81
2023/04/28 08:20:21;;;;;;;13.90;5.10;;;;;;;12.05;52.84;100862.52;217560;1288;138562;-83
2023/04/28 08:25:21;;;;;;;10.10;4.50;;;;;;;12.47;53.80;100853.45;218100;1288;138559;-84
2023/04/28 08:30:23;;;;;;;8.70;4.30;;;;;;;13.00;51.99;100850.31;217658;1288;138659;-85
2023/04/28 08:35:23;;;;;;;11.10;4.50;;;;;;;13.49;51.55;100841.58;218170;1288;138330;-83
2023/04/28 08:40:25;;;;;;;8.20;3.90;;;;;;;14.17;50.46;100834.79;217747;1288;139402;-85
2023/04/28 08:45:29;;;;;;;9.20;4.00;;;;;;;14.57;47.67;100830.38;218262;1288;138520;-85
2023/04/28 08:50:31;;;;;;;9.20;4.20;;;;;;;15.02;46.75;100824.22;217917;1288;139353;-84
2023/04/28 08:55:33;;;;;;;10.30;4.20;;;;;;;15.81;48.87;100813.04;218269;1288;138148;-82
2023/04/28 09:00:36;;;;;;;10.20;4.70;;;;;;;16.85;48.89;100809.64;217732;1288;139817;-81
2023/04/28 09:05:36;;;;;;;11.50;4.50;;;;;;;17.65;47.14;100807.61;218327;1289;138469;-85
2023/04/28 09:10:37;;;;;;;11.00;5.20;;;;;;;17.89;45.12;100792.52;217831;1288;140261;-82
2023/04/28 09:15:41;;;;;;;9.50;4.80;;;;;;;18.25;45.45;100789.96;218325;1289;138599;-83
2023/04/28 09:20:43;;;;;;;10.70;5.60;;;;;;;18.81;43.55;100786.08;217859;1288;139637;-83
2023/04/28 09:26:03;;;;;;;14.80;6.30;;;;;;;19.30;43.95;100788.23;218341;1289;138388;-84
2023/04/28 09:31:03;;;;;;;16.60;6.00;;;;;;;20.00;41.86;100775.27;217755;1289;138974;-83
2023/04/28 09:36:04;;;;;;;12.00;5.80;;;;;;;20.53;41.50;100775.09;218362;1288;138732;-83
2023/04/28 09:41:05;;;;;;;19.90;6.40;;;;;;;20.99;40.12;100773.48;217817;1288;139053;-83
2023/04/28 09:46:05;;;;;;;11.70;5.90;;;;;;;20.95;39.11;100769.59;218326;1288;138423;-82
2023/04/28 09:51:06;;;;;;;15.60;6.30;;;;;;;20.98;40.04;100758.94;217751;1288;138968;-82
2023/04/28 09:56:07;;;;;;;12.40;6.20;;;;;;;21.71;39.53;100750.29;218313;1288;96483;-83
2023/04/28 10:01:10;;;;;;;14.70;7.00;;;;;;;21.85;38.36;100739.73;217807;1289;138772;-83
2023/04/28 10:06:10;;;;;;;12.90;6.60;;;;;;;22.09;37.95;100729.23;218394;1288;138433;-83
2023/04/28 10:11:12;;;;;;;12.30;6.50;;;;;;;22.35;37.33;100726.64;217790;1289;139402;-84
2023/04/28 10:16:13;;;;;;;11.60;6.40;;;;;;;22.48;36.05;100716.98;218233;1288;138613;-83
2023/04/28 10:21:19;;;;;;;12.60;7.10;;;;;;;22.60;36.22;100710.98;217723;1289;139373;-83
2023/04/28 10:26:22;;;;;;;14.70;6.80;;;;;;;22.78;36.18;100708.45;218325;1290;107999;-82
2023/04/28 10:31:23;;;;;;;12.30;7.00;;;;;;;22.90;34.65;100709.56;217652;1288;138771;-84
2023/04/28 10:36:48;;;;;;;11.40;6.40;;;;;;;22.64;35.43;100705.98;218351;1289;139396;-83
2023/04/28 10:41:48;;;;;;;12.20;7.10;;;;;;;22.82;35.06;100699.64;217882;1288;138944;-83
2023/04/28 10:47:00;;;;;;;15.80;7.60;;;;;;;23.11;35.18;100694.37;218304;1288;138906;-84
2023/04/28 10:52:08;;;;;;;14.10;7.60;;;;;;;23.40;35.34;100680.42;217750;1289;139681;-84
2023/04/28 10:57:16;;;;;;;14.00;7.80;;;;;;;23.40;34.42;100675.89;218312;1289;139105;-84
2023/04/28 11:02:36;;;;;;;14.20;8.60;;;;;;;22.87;32.80;100664.17;217878;1288;138736;-84
2023/04/28 11:07:37;;;;;;;15.60;8.30;;;;;;;22.27;35.28;100656.96;218265;1288;138597;-83
2023/04/28 11:13:16;;;;;;;20.30;8.60;;;;;;;22.86;34.74;100650.44;217870;1288;138790;-83
2023/04/28 11:18:20;;;;;;;18.90;9.30;;;;;;;22.89;33.00;100651.59;218302;1288;138381;-84
2023/04/28 11:23:21;;;;;;;17.00;9.10;;;;;;;22.44;34.66;100642.44;217842;1289;138626;-83
2023/04/28 11:28:22;;;;;;;14.70;10.10;;;;;;;22.71;34.71;100634.55;218197;1291;138634;-82
2023/04/28 11:33:22;;;;;;;14.60;9.30;;;;;;;23.07;34.47;100635.23;217791;1289;138791;-84
2023/04/28 11:38:23;;;;;;;15.00;8.80;;;;;;;23.28;33.91;100634.55;218508;1288;95942;-84
2023/04/28 11:43:30;;;;;;;16.80;10.20;;;;;;;23.22;33.80;100630.67;217902;1288;138389;-82
2023/04/28 11:48:31;;;;;;;20.00;10.50;;;;;;;22.74;33.53;100626.95;218258;1288;138525;-82
2023/04/28 11:53:44;;;;;;;16.60;8.60;;;;;;;22.23;33.35;100620.14;217795;1288;139970;-83
2023/04/28 11:58:45;;;;;;;18.20;9.10;;;;;;;21.72;33.70;100621.80;218306;1288;138464;-83
2023/04/28 12:03:46;;;;;;;14.10;8.40;;;;;;;21.63;34.63;100609.83;217868;1288;138619;-82
2023/04/28 12:08:48;;;;;;;16.10;9.50;;;;;;;21.86;34.25;100604.56;218185;1290;96197;-82
2023/04/28 12:14:07;;;;;;;15.60;8.40;;;;;;;22.19;34.96;100602.91;217640;1290;139508;-83
2023/04/28 12:19:09;;;;;;;18.20;9.60;;;;;;;22.08;33.94;100597.56;217474;1290;139133;-82
2023/04/28 12:24:15;;;;;;;16.40;9.70;;;;;;;22.12;34.64;100593.05;218085;1290;138819;-82
2023/04/28 12:29:35;;;;;;;16.10;9.30;;;;;;;22.18;34.08;100587.23;217605;1290;138462;-82
2023/04/28 12:34:38;;;;;;;15.80;9.80;;;;;;;21.75;34.59;100586.90;218161;1291;138405;-81
2023/04/28 12:39:40;;;;;;;17.90;8.30;;;;;;;21.79;36.08;100578.45;217696;1290;139107;-82
2023/04/28 12:44:40;;;;;;;15.20;9.30;;;;;;;22.07;36.02;100572.85;218246;1290;97270;-81
2023/04/28 12:49:40;;;;;;;17.00;10.00;;;;;;;21.99;36.40;100570.30;217544;1290;138709;-81
2023/04/28 12:54:45;;;;;;;14.80;8.60;;;;;;;21.95;35.93;100562.30;218137;1290;138338;-82
2023/04/28 12:59:51;;;;;;;15.60;9.40;;;;;;;21.96;35.70;100552.33;217651;1290;138788;-81
2023/04/28 13:04:51;;;;;;;16.10;9.50;;;;;;;21.73;34.91;100552.03;218124;1291;138473;-83
2023/04/28 13:09:52;;;;;;;15.20;9.40;;;;;;;21.01;35.20;100547.70;217690;1291;140001;-83
2023/04/28 13:14:52;;;;;;;17.10;10.00;;;;;;;20.63;35.35;100534.95;218537;1288;97176;-84
2023/04/28 13:19:53;;;;;;;20.50;10.10;;;;;;;20.23;35.95;100529.93;217822;1288;138777;-82
2023/04/28 13:24:54;;;;;;;16.80;10.00;;;;;;;20.11;36.13;100526.63;218351;1288;138373;-83
2023/04/28 13:29:57;;;;;;;18.10;9.10;;;;;;;20.17;36.93;100517.61;217843;1289;138796;-83
2023/04/28 13:34:58;;;;;;;16.10;9.10;;;;;;;20.32;37.14;100509.23;218377;1289;138961;-83
2023/04/28 13:39:58;;;;;;;16.40;9.60;;;;;;;20.16;36.14;100501.59;217854;1288;139326;-82
2023/04/28 13:44:58;;;;;;;16.50;9.70;;;;;;;19.99;36.86;100495.48;218385;1288;138765;-83
2023/04/28 13:49:59;;;;;;;16.00;8.20;;;;;;;20.16;37.93;100491.23;218005;1288;139223;-82
2023/04/28 13:54:59;;;;;;;21.90;10.60;;;;;;;20.46;37.53;100481.20;218262;1289;138077;-82
2023/04/28 14:00:00;;;;;;;19.50;10.80;;;;;;;20.50;36.58;100469.43;217856;1290;139013;-83
2023/04/28 14:05:01;;;;;;;14.30;7.60;;;;;;;20.36;36.59;100462.33;218365;1288;138717;-83
2023/04/28 14:10:01;;;;;;;20.20;8.60;;;;;;;20.33;38.83;100461.52;217843;1288;139900;-82
2023/04/28 14:15:01;;;;;;;15.70;8.60;;;;;;;20.42;39.11;100451.52;218213;1291;138856;-82
2023/04/28 14:20:03;;;;;;;14.50;8.70;;;;;;;20.41;38.22;100440.60;217958;1290;138872;-82
2023/04/28 14:25:03;;;;;;;20.50;10.10;;;;;;;20.24;38.00;100437.81;218287;1289;138813;-83
2023/04/28 14:30:05;;;;;;;16.40;8.50;;;;;;;20.20;38.44;100430.85;217853;1288;139014;-82
2023/04/28 14:35:05;;;;;;;16.30;8.60;;;;;;;20.19;37.35;100419.92;218444;1289;139454;-81
2023/04/28 14:40:07;;;;;;;14.70;8.20;;;;;;;20.02;38.54;100421.10;217873;1289;139275;-81
2023/04/28 14:45:09;;;;;;;18.20;8.70;;;;;;;19.88;37.49;100415.16;218361;1288;139079;-83
2023/04/28 14:50:10;;;;;;;15.60;8.30;;;;;;;19.58;37.97;100406.45;217841;1288;139078;-80
2023/04/28 14:55:10;;;;;;;12.00;7.70;;;;;;;19.43;39.49;100399.67;218409;1288;138675;-83
2023/04/28 15:00:11;;;;;;;16.40;7.50;;;;;;;19.52;39.71;100392.57;217443;1291;140764;-82
2023/04/28 15:05:12;;;;;;;15.80;7.50;;;;;;;19.45;39.13;100393.66;218256;1288;138775;-82
2023/04/28 15:10:13;;;;;;;11.70;6.70;;;;;;;19.36;39.81;100388.86;217706;1288;139061;-81
2023/04/28 15:15:14;;;;;;;19.20;17.30;;;;;;;19.31;38.93;100382.45;218356;1288;138981;-81
2023/04/28 15:20:14;;;;;;;17.50;13.50;;;;;;;19.10;39.41;100373.05;217744;1291;139212;-81
2023/04/28 15:25:14;;;;;;;13.90;7.70;;;;;;;18.85;38.87;100370.88;218188;1289;139007;-83
2023/04/28 15:30:16;;;;;;;16.10;8.60;;;;;;;18.55;38.31;100362.08;217609;1288;138785;-83
2023/04/28 15:35:18;;;;;;;14.20;7.30;;;;;;;18.52;39.83;100363.67;218282;1288;138947;-82
2023/04/28 15:40:20;;;;;;;68.60;62.20;;;;;;;18.56;39.96;100356.08;217762;1288;138726;-81
2023/04/28 15:45:21;;;;;;;55.80;34.20;;;;;;;18.51;39.40;100351.84;218269;1288;138629;-82
2023/04/28 15:50:23;;;;;;;46.90;30.70;;;;;;;18.53;41.86;100349.08;217910;1288;138882;-81
2023/04/28 15:55:24;;;;;;;59.10;45.20;;;;;;;18.49;40.55;100343.27;218381;1291;138299;-81
2023/04/28 16:00:25;;;;;;;34.90;19.90;;;;;;;18.33;39.88;100342.25;217804;1289;139548;-82
2023/04/28 16:05:26;;;;;;;17.10;10.10;;;;;;;18.23;40.56;100336.89;218290;1289;138804;-81
2023/04/28 16:10:27;;;;;;;13.60;8.30;;;;;;;18.19;40.54;100336.25;217875;1288;138915;-81
2023/04/28 16:15:27;;;;;;;19.50;8.10;;;;;;;18.20;40.30;100332.02;218125;1291;361892;-81
2023/04/28 16:20:28;;;;;;;18.30;8.10;;;;;;;18.08;40.31;100331.08;217930;1288;138106;-81
2023/04/28 16:25:29;;;;;;;15.30;8.30;;;;;;;17.89;40.25;100326.36;218392;1291;138215;-82
2023/04/28 16:30:31;;;;;;;14.80;7.40;;;;;;;17.67;41.28;100320.63;217858;1288;138619;-82
2023/04/28 16:35:31;;;;;;;12.80;7.70;;;;;;;17.62;41.74;100320.24;218308;1289;138428;-81
2023/04/28 16:40:32;;;;;;;16.60;8.90;;;;;;;17.62;42.65;100317.07;217679;1289;139000;-80
2023/04/28 16:45:32;;;;;;;146.40;85.00;;;;;;;17.71;43.11;100311.40;218380;1291;138349;-80
2023/04/28 16:50:33;;;;;;;16.60;8.60;;;;;;;17.78;42.28;100308.16;217988;1289;139086;-81
2023/04/28 16:55:35;;;;;;;15.60;6.90;;;;;;;17.75;41.78;100305.27;218364;1288;138820;-80
2023/04/28 17:00:36;;;;;;;13.30;5.90;;;;;;;17.62;41.52;100301.16;217815;1289;138639;-80
2023/04/28 17:05:36;;;;;;;11.10;5.90;;;;;;;17.49;42.61;100298.09;218262;1291;138467;-81
2023/04/28 17:10:37;;;;;;;13.90;5.50;;;;;;;17.30;42.28;100300.48;217815;1289;138664;-80
2023/04/28 17:15:38;;;;;;;13.30;6.30;;;;;;;17.10;42.42;100296.63;218260;1293;138734;-81
2023/04/28 17:20:39;;;;;;;14.80;6.10;;;;;;;16.90;42.76;100296.88;217959;1288;138293;-79
2023/04/28 17:25:39;;;;;;;14.80;6.40;;;;;;;16.73;42.69;100290.23;218405;1289;138209;-79
2023/04/28 17:30:40;;;;;;;12.10;5.70;;;;;;;16.59;43.54;100290.06;217665;1288;138453;-80
2023/04/28 17:35:41;;;;;;;16.00;8.00;;;;;;;16.49;44.58;100290.06;218306;1289;138583;-80
2023/04/28 17:40:47;;;;;;;15.70;6.30;;;;;;;16.30;44.46;100282.23;217783;1289;139040;-81
2023/04/28 17:45:47;;;;;;;13.40;7.10;;;;;;;16.07;44.78;100277.95;218160;1288;138401;-81
2023/04/28 17:50:48;;;;;;;12.70;5.80;;;;;;;15.83;45.15;100279.62;217921;1291;138460;-80
2023/04/28 17:55:48;;;;;;;13.00;5.80;;;;;;;15.66;46.06;100278.98;218398;1291;138198;-80
2023/04/28 18:01:01;;;;;;;13.30;6.00;;;;;;;15.62;47.40;100280.27;217839;1289;138665;-80
2023/04/28 18:06:02;;;;;;;14.60;6.00;;;;;;;15.54;47.60;100279.58;218286;1291;138488;-81
2023/04/28 18:11:02;;;;;;;14.10;6.70;;;;;;;15.37;47.74;100279.13;217815;1292;140972;-81
2023/04/28 18:16:03;;;;;;;16.80;7.00;;;;;;;15.28;48.54;100277.06;218453;1288;138386;-81
2023/04/28 18:21:04;;;;;;;12.90;6.50;;;;;;;15.13;48.14;100277.44;217838;1289;139428;-81
2023/04/28 18:26:05;;;;;;;18.90;7.30;;;;;;;14.97;48.70;100278.08;218493;1289;96065;-81
2023/04/28 18:31:05;;;;;;;15.80;6.70;;;;;;;14.82;48.90;100277.25;217867;1288;138613;-81
2023/04/28 18:36:06;;;;;;;19.90;8.30;;;;;;;14.67;48.84;100274.84;218291;1292;138800;-80
2023/04/28 18:41:12;;;;;;;19.40;8.60;;;;;;;14.54;49.43;100273.52;217828;1289;138593;-81
2023/04/28 18:46:13;;;;;;;18.80;8.20;;;;;;;14.43;49.72;100277.34;218201;1290;139959;-80
2023/04/28 18:51:13;;;;;;;18.30;8.60;;;;;;;14.33;50.22;100280.95;217845;1289;138437;-81
2023/04/28 18:56:14;;;;;;;22.50;9.80;;;;;;;14.28;50.78;100281.61;218460;1289;95695;-81
2023/04/28 19:01:19;;;;;;;18.80;10.30;;;;;;;14.18;50.87;100284.27;217812;1288;139301;-82
2023/04/28 19:06:20;;;;;;;20.70;10.40;;;;;;;14.07;51.17;100281.78;218304;1288;138710;-80
2023/04/28 19:11:24;;;;;;;23.30;10.50;;;;;;;13.98;51.32;100282.39;217685;1289;139231;-80
2023/04/28 19:16:25;;;;;;;24.10;10.00;;;;;;;13.91;51.84;100280.37;218310;1294;138530;-80
2023/04/28 19:21:28;;;;;;;20.00;10.70;;;;;;;13.85;51.83;100282.69;217829;1288;138854;-80
2023/04/28 19:26:29;;;;;;;20.50;10.60;;;;;;;13.79;52.41;100280.73;218321;1294;96312;-81
2023/04/28 19:31:31;;;;;;;21.60;9.80;;;;;;;13.73;52.67;100277.52;217758;1291;138185;-81
2023/04/28 19:36:32;;;;;;;15.70;8.50;;;;;;;13.67;52.97;100271.70;218256;1290;138430;-82
2023/04/28 19:41:34;;;;;;;20.90;10.00;;;;;;;13.63;53.35;100272.11;217622;1292;138675;-82
2023/04/28 19:46:36;;;;;;;24.60;10.70;;;;;;;13.57;53.48;100264.08;218163;1289;139473;-82
2023/04/28 19:51:38;;;;;;;20.50;10.30;;;;;;;13.48;53.60;100266.23;217764;1289;140265;-82
2023/04/28 19:56:40;;;;;;;19.50;10.90;;;;;;;13.43;53.89;100263.65;218303;1288;96025;-82
2023/04/28 20:01:42;;;;;;;20.40;10.90;;;;;;;13.36;53.98;100262.41;217434;1289;139059;-82
2023/04/28 20:06:42;;;;;;;21.40;10.70;;;;;;;13.29;54.05;100266.45;218323;1292;138355;-82
2023/04/28 20:11:43;;;;;;;22.20;11.10;;;;;;;13.25;54.22;100262.91;217856;1289;140440;-82
2023/04/28 20:16:47;;;;;;;17.70;10.70;;;;;;;13.22;54.33;100261.27;218264;1289;138512;-82
2023/04/28 20:21:49;;;;;;;22.40;11.80;;;;;;;13.15;54.52;100254.58;217767;1289;139073;-82
2023/04/28 20:26:50;;;;;;;23.00;11.70;;;;;;;13.10;54.54;100255.61;218500;1289;96233;-82
2023/04/28 20:31:51;;;;;;;19.90;10.90;;;;;;;13.05;54.63;100249.14;217757;1289;139111;-85
2023/04/28 20:36:53;;;;;;;26.50;11.10;;;;;;;13.01;54.86;100255.38;218191;1288;138522;-86
2023/04/28 20:41:53;;;;;;;21.40;11.10;;;;;;;12.95;55.26;100252.22;217652;1289;140528;-85
2023/04/28 20:46:54;;;;;;;27.40;12.50;;;;;;;12.93;55.63;100251.89;218442;1289;138494;-86
2023/04/28 20:52:01;;;;;;;22.90;11.70;;;;;;;12.90;55.49;100248.97;217680;1289;139500;-84
2023/04/28 20:57:03;;;;;;;21.80;10.80;;;;;;;12.86;55.63;100246.05;218286;1288;138631;-84
2023/04/28 21:02:03;;;;;;;23.40;11.50;;;;;;;12.81;55.72;100240.23;217888;1289;139477;-85
2023/04/28 21:07:04;;;;;;;22.80;10.30;;;;;;;12.78;56.13;100242.59;218303;1288;138571;-84
2023/04/28 21:12:05;;;;;;;19.10;10.50;;;;;;;12.72;56.29;100235.17;217784;1288;139237;-83
2023/04/28 21:17:05;;;;;;;22.70;11.30;;;;;;;12.66;56.26;100232.35;218383;1289;139163;-83
2023/04/28 21:22:06;;;;;;;23.50;10.40;;;;;;;12.62;56.47;100232.35;217692;1289;139045;-84
2023/04/28 21:27:07;;;;;;;21.80;12.10;;;;;;;12.59;56.75;100222.65;218332;1288;139215;-84
2023/04/28 21:32:07;;;;;;;18.50;10.60;;;;;;;12.53;56.57;100217.92;217973;1288;139868;-83
2023/04/28 21:37:08;;;;;;;26.10;12.60;;;;;;;12.47;56.98;100214.61;218381;1290;138569;-84
2023/04/28 21:42:08;;;;;;;22.30;12.50;;;;;;;12.41;57.14;100206.80;217791;1289;139066;-85
2023/04/28 21:47:09;;;;;;;24.80;12.20;;;;;;;12.38;57.59;100201.28;218286;1288;138816;-84
2023/04/28 21:52:09;;;;;;;23.50;12.20;;;;;;;12.33;57.77;100193.95;217834;1289;138998;-83
2023/04/28 21:57:10;;;;;;;20.10;11.70;;;;;;;12.27;58.07;100195.68;218379;1289;138630;-84
2023/04/28 22:02:11;;;;;;;19.70;11.40;;;;;;;12.24;57.95;100197.72;217953;1289;138622;-84
2023/04/28 22:07:11;;;;;;;20.70;11.30;;;;;;;12.17;58.24;100199.06;218274;1289;139817;-83
2023/04/28 22:12:12;;;;;;;22.10;12.50;;;;;;;12.11;58.73;100195.35;217863;1289;139521;-83
2023/04/28 22:17:12;;;;;;;21.30;12.70;;;;;;;12.02;58.97;100195.48;218390;1289;139848;-85
2023/04/28 22:22:13;;;;;;;27.10;14.70;;;;;;;11.97;59.50;100193.67;217827;1290;138683;-84
2023/04/28 22:27:14;;;;;;;26.30;14.00;;;;;;;11.91;59.49;100185.62;218386;1288;139469;-84
2023/04/28 22:32:14;;;;;;;25.90;13.90;;;;;;;11.85;59.67;100183.88;217973;1289;138400;-84